Dammam/King Fahd International Airport

Airport
ICAO code: 
OEDF
Summary
ICAO Region: 
MID
Territory: 
Location: 
Dammam,
Coordinates: 
Aerial View: 
26° 28' 6.207" N, 49° 47' 16.869" E
Airport WX: 
Sand Storm
Metar
Observation
OEDF 251900Z 29004KT CAVOK 29/06 Q1009 NOSIG
Station
Dammam-King Fahd International Airport
Date/Time
2022-05-25 19:00:00
Wind direction
290°
Wind speed
04 kts
Lowest cloud amount
clouds and visibility OK
Temperature
29°C
Dew point
6°C
Humidity
23%
QNH
1009 hPa
Weather condition
n/a

Description

Dammam King Fahd International Airport is located 15 km northwest of Dammam, Saudi Arabia.

Climatology

Hot Desert Climate (Köppen climate classification BWh) - Hot desert climates are typically found in the subtropics where there is unbroken sunshine for the whole year due to the stable descending air and high pressure, little or no precipitation. Maximum temperatures of 40°C to 45°C are not uncommon, particularly during the warmer months of the year. During colder periods of the year, night-time temperatures can drop to freezing or below due to the exceptional radiation loss under the clear skies. However, very rarely do temperatures drop far below freezing.

Runways

Designator Length Width Surface Rops
16L/34R 4000 60 ASP Yes/Yes
16R/34L 4000 60 ASP Yes/Yes
Airport map: 
Aerial View: 

SKYbrary Partners:

Safety knowledge contributed by: